createdAt,value
2023-05-20T00:00:02.125Z,3.42
2023-05-20T00:02:30.418Z,3.70
2023-05-20T00:04:58.963Z,3.72
2023-05-20T00:07:27.572Z,5.20
2023-05-20T00:09:55.864Z,3.22
2023-05-20T00:12:24.062Z,3.50
2023-05-20T00:14:55.931Z,2.92
2023-05-20T00:17:26.646Z,3.92
2023-05-20T00:19:54.857Z,3.88
2023-05-20T00:22:23.446Z,4.85
2023-05-20T00:24:51.598Z,3.60
2023-05-20T00:27:19.717Z,5.50
2023-05-20T00:29:48.151Z,3.80
2023-05-20T00:32:17.887Z,10.57
2023-05-20T00:34:46.078Z,4.50
2023-05-20T00:37:14.133Z,3.03
2023-05-20T00:39:42.411Z,3.55
2023-05-20T00:42:10.513Z,6.03
2023-05-20T00:44:39.106Z,3.88
2023-05-20T00:47:07.903Z,3.60
2023-05-20T00:49:37.693Z,3.22
2023-05-20T00:52:06.870Z,3.20
2023-05-20T00:54:35.567Z,3.15
2023-05-20T00:57:04.809Z,4.30
2023-05-20T00:59:33.053Z,3.45
2023-05-20T01:02:02.030Z,3.35
2023-05-20T01:04:31.664Z,2.78
2023-05-20T01:07:03.576Z,2.83
2023-05-20T01:09:32.399Z,4.78
2023-05-20T01:12:07.053Z,5.35
2023-05-20T01:14:39.323Z,3.03
2023-05-20T01:17:11.242Z,4.43
2023-05-20T01:19:44.137Z,3.50
2023-05-20T01:22:15.293Z,3.17
2023-05-20T01:24:48.551Z,3.88
2023-05-20T01:27:16.929Z,4.23
2023-05-20T01:29:46.096Z,3.83
2023-05-20T01:32:18.888Z,3.17
2023-05-20T01:34:50.052Z,3.75
2023-05-20T01:37:19.867Z,3.22
2023-05-20T01:39:52.065Z,3.10
2023-05-20T01:42:21.930Z,3.70
2023-05-20T01:44:50.134Z,3.60
2023-05-20T01:47:18.251Z,5.45
2023-05-20T01:49:47.855Z,3.63
2023-05-20T01:52:16.212Z,2.92
2023-05-20T01:54:51.041Z,3.20
2023-05-20T01:57:21.884Z,3.60
2023-05-20T01:59:50.370Z,4.63
2023-05-20T02:02:19.015Z,5.57
2023-05-20T02:04:48.973Z,3.92
2023-05-20T02:07:18.850Z,3.33
2023-05-20T02:09:47.449Z,4.25
2023-05-20T02:12:17.480Z,4.50
2023-05-20T02:14:49.383Z,4.78
2023-05-20T02:17:18.549Z,4.97
2023-05-20T02:19:47.448Z,5.03
2023-05-20T02:22:15.964Z,5.07
2023-05-20T02:24:44.549Z,3.83
2023-05-20T02:27:13.268Z,4.88
2023-05-20T02:29:41.424Z,3.65
2023-05-20T02:32:11.356Z,4.22
2023-05-20T02:34:39.589Z,4.13
2023-05-20T02:37:07.845Z,5.10
2023-05-20T02:39:36.038Z,7.57
2023-05-20T02:42:04.783Z,6.40
2023-05-20T02:44:32.996Z,4.93
2023-05-20T02:47:01.171Z,5.15
2023-05-20T02:49:30.716Z,5.93
2023-05-20T02:51:58.974Z,6.70
2023-05-20T02:54:27.096Z,5.35
2023-05-20T02:56:55.272Z,5.45
2023-05-20T02:59:23.425Z,4.97
2023-05-20T03:01:51.688Z,4.18
2023-05-20T03:04:21.803Z,5.95
2023-05-20T03:06:52.257Z,5.75
2023-05-20T03:09:20.753Z,4.65
2023-05-20T03:11:49.764Z,5.88
2023-05-20T03:14:18.088Z,6.47
2023-05-20T03:16:46.480Z,4.20
2023-05-20T03:19:14.750Z,6.25
2023-05-20T03:21:43.908Z,5.75
2023-05-20T03:24:13.476Z,6.13
2023-05-20T03:26:43.347Z,6.38
2023-05-20T03:29:12.089Z,5.45
2023-05-20T03:31:40.410Z,7.03
2023-05-20T03:34:09.457Z,6.57
2023-05-20T03:36:37.632Z,5.63
2023-05-20T03:39:05.816Z,5.05
2023-05-20T03:41:35.489Z,4.47
2023-05-20T03:44:03.620Z,7.80
2023-05-20T03:46:32.779Z,5.72
2023-05-20T03:49:01.903Z,5.50
2023-05-20T03:51:30.113Z,6.35
2023-05-20T03:53:58.463Z,8.60
2023-05-20T03:56:26.595Z,4.05
2023-05-20T03:58:56.566Z,5.10
2023-05-20T04:01:25.789Z,5.68
2023-05-20T04:03:54.559Z,6.97
2023-05-20T04:06:23.056Z,6.85
2023-05-20T04:08:53.030Z,8.75
2023-05-20T04:11:21.601Z,5.85
2023-05-20T04:13:49.915Z,6.50
2023-05-20T04:16:20.096Z,8.15
2023-05-20T04:18:48.581Z,6.45
2023-05-20T04:21:16.867Z,6.43
2023-05-20T04:23:44.899Z,7.22
2023-05-20T04:26:13.138Z,7.22
2023-05-20T04:28:42.171Z,6.15
2023-05-20T04:31:10.809Z,7.45
2023-05-20T04:33:40.318Z,6.00
2023-05-20T04:36:12.229Z,9.60
2023-05-20T04:38:42.354Z,6.90
2023-05-20T04:41:11.136Z,5.05
2023-05-20T04:43:40.444Z,5.85
2023-05-20T04:46:08.938Z,5.88
2023-05-20T04:48:37.490Z,7.88
2023-05-20T04:51:07.332Z,6.38
2023-05-20T04:53:36.104Z,7.57
2023-05-20T04:56:04.955Z,9.95
2023-05-20T04:58:34.640Z,10.60
2023-05-20T05:01:03.059Z,6.13
2023-05-20T05:03:31.677Z,9.95
2023-05-20T05:06:00.255Z,8.23
2023-05-20T05:08:29.777Z,7.53
2023-05-20T05:10:58.047Z,5.20
2023-05-20T05:13:26.232Z,7.75
2023-05-20T05:16:00.819Z,7.22
2023-05-20T05:18:29.142Z,7.03
2023-05-20T05:21:01.986Z,6.72
2023-05-20T05:23:31.706Z,6.15
2023-05-20T05:26:00.118Z,8.18
2023-05-20T05:28:28.539Z,6.30
2023-05-20T05:30:57.414Z,7.38
2023-05-20T05:33:25.740Z,8.15
2023-05-20T05:35:54.047Z,7.82
2023-05-20T05:38:22.326Z,8.23
2023-05-20T05:40:51.958Z,6.22
2023-05-20T05:43:20.142Z,5.75
2023-05-20T05:45:48.520Z,8.13
2023-05-20T05:48:16.886Z,7.38
2023-05-20T05:50:46.983Z,7.63
2023-05-20T05:53:16.102Z,7.32
2023-05-20T05:55:44.392Z,7.13
2023-05-20T05:58:13.996Z,7.32
2023-05-20T06:00:42.530Z,13.55
2023-05-20T06:03:11.044Z,7.90
2023-05-20T06:05:39.665Z,8.15
2023-05-20T06:08:08.260Z,6.25
2023-05-20T06:10:36.524Z,7.18
2023-05-20T06:13:05.037Z,7.72
2023-05-20T06:15:35.206Z,9.38
2023-05-20T06:18:03.787Z,6.25
2023-05-20T06:20:32.111Z,8.80
2023-05-20T06:23:00.588Z,7.38
2023-05-20T06:25:29.431Z,7.88
2023-05-20T06:27:58.091Z,10.18
2023-05-20T06:30:26.506Z,6.47
2023-05-20T06:32:56.196Z,8.32
2023-05-20T06:35:24.796Z,6.60
2023-05-20T06:37:53.102Z,6.53
2023-05-20T06:40:21.441Z,7.53
2023-05-20T06:42:49.763Z,7.78
2023-05-20T06:45:18.168Z,8.02
2023-05-20T06:47:48.128Z,7.25
2023-05-20T06:50:17.969Z,8.05
2023-05-20T06:52:46.420Z,5.50
2023-05-20T06:55:14.696Z,7.07
2023-05-20T06:57:43.309Z,7.25
2023-05-20T07:00:13.856Z,8.00
2023-05-20T07:02:43.609Z,8.48
2023-05-20T07:05:12.869Z,9.25
2023-05-20T07:07:42.638Z,6.88
2023-05-20T07:10:11.388Z,7.38
2023-05-20T07:12:40.089Z,5.53
2023-05-20T07:15:10.059Z,8.05
2023-05-20T07:17:38.660Z,4.53
2023-05-20T07:20:08.389Z,6.30
2023-05-20T07:22:37.059Z,9.75
2023-05-20T07:25:07.612Z,6.22
2023-05-20T07:27:36.475Z,6.78
2023-05-20T07:30:05.095Z,6.47
2023-05-20T07:32:33.398Z,8.40
2023-05-20T07:35:01.828Z,6.32
2023-05-20T07:37:30.381Z,7.38
2023-05-20T07:39:58.579Z,7.95
2023-05-20T07:42:28.630Z,6.10
2023-05-20T07:44:56.933Z,7.72
2023-05-20T07:47:25.349Z,7.45
2023-05-20T07:49:53.633Z,9.48
2023-05-20T07:52:22.099Z,6.55
2023-05-20T07:54:50.364Z,6.03
2023-05-20T07:57:18.708Z,6.57
2023-05-20T07:59:48.212Z,7.53
2023-05-20T08:02:17.768Z,6.32
2023-05-20T08:04:46.034Z,6.32
2023-05-20T08:07:14.400Z,7.60
2023-05-20T08:09:42.565Z,8.07
2023-05-20T08:12:10.729Z,8.82
2023-05-20T08:14:39.546Z,6.88
2023-05-20T08:17:09.451Z,5.15
2023-05-20T08:19:37.963Z,6.97
2023-05-20T08:22:08.218Z,5.65
2023-05-20T08:24:36.447Z,8.05
2023-05-20T08:27:05.274Z,5.68
2023-05-20T08:29:33.571Z,5.68
2023-05-20T08:32:01.853Z,8.40
2023-05-20T08:34:31.457Z,7.35
2023-05-20T08:36:59.838Z,6.53
2023-05-20T08:39:28.692Z,5.85
2023-05-20T08:41:57.049Z,6.88
2023-05-20T08:44:27.521Z,6.07
2023-05-20T08:46:56.894Z,6.40
2023-05-20T08:49:25.371Z,7.32
2023-05-20T08:51:55.167Z,6.43
2023-05-20T08:54:26.794Z,5.25
2023-05-20T08:56:56.051Z,5.18
2023-05-20T08:59:24.779Z,8.05
2023-05-20T09:01:53.233Z,6.70
2023-05-20T09:04:21.367Z,5.90
2023-05-20T09:06:52.720Z,5.00
2023-05-20T09:09:22.920Z,5.60
2023-05-20T09:11:51.298Z,6.60
2023-05-20T09:14:19.670Z,6.85
2023-05-20T09:16:49.386Z,8.80
2023-05-20T09:19:17.799Z,4.07
2023-05-20T09:21:48.637Z,6.57
2023-05-20T09:24:16.771Z,4.78
2023-05-20T09:26:46.997Z,5.93
2023-05-20T09:29:15.522Z,6.47
2023-05-20T09:31:45.315Z,5.55
2023-05-20T09:34:14.665Z,6.05
2023-05-20T09:36:44.868Z,6.75
2023-05-20T09:39:16.069Z,5.97
2023-05-20T09:41:55.225Z,5.30
2023-05-20T09:44:24.125Z,5.80
2023-05-20T09:46:53.439Z,5.65
2023-05-20T09:49:24.168Z,7.25
2023-05-20T09:51:54.519Z,5.47
2023-05-20T09:54:24.931Z,6.47
2023-05-20T09:56:55.084Z,5.53
2023-05-20T09:59:23.891Z,5.20
2023-05-20T10:01:52.388Z,5.55
2023-05-20T10:04:22.872Z,4.88
2023-05-20T10:07:33.968Z,5.63
2023-05-20T10:10:19.055Z,6.47
2023-05-20T10:13:01.409Z,6.25
2023-05-20T10:15:40.494Z,5.22
2023-05-20T10:18:19.250Z,5.15
2023-05-20T10:20:49.062Z,6.07
2023-05-20T10:23:24.354Z,7.15
2023-05-20T10:25:53.862Z,5.55
2023-05-20T10:28:36.445Z,5.78
2023-05-20T10:31:16.244Z,5.50
2023-05-20T10:33:45.745Z,5.40
2023-05-20T10:36:26.324Z,6.80
2023-05-20T10:38:55.525Z,5.90
2023-05-20T10:41:26.800Z,5.93
2023-05-20T10:44:03.655Z,5.15
2023-05-20T10:46:40.102Z,5.57
2023-05-20T10:49:24.172Z,6.32
2023-05-20T10:51:56.355Z,4.57
2023-05-20T10:54:25.132Z,6.50
2023-05-20T10:56:54.686Z,6.20
2023-05-20T10:59:24.626Z,4.72
2023-05-20T11:01:53.034Z,7.43
2023-05-20T11:04:21.956Z,5.85
2023-05-20T11:06:56.231Z,6.28
2023-05-20T11:09:24.885Z,6.07
2023-05-20T11:11:55.696Z,5.75
2023-05-20T11:14:25.513Z,5.85
2023-05-20T11:16:54.771Z,4.97
2023-05-20T11:19:23.325Z,5.63
2023-05-20T11:21:51.618Z,9.38
2023-05-20T11:24:26.040Z,5.90
2023-05-20T11:26:54.476Z,6.25
2023-05-20T11:29:24.505Z,5.18
2023-05-20T11:31:53.289Z,4.80
2023-05-20T11:34:25.580Z,5.70
2023-05-20T11:36:59.062Z,6.30
2023-05-20T11:39:30.938Z,5.75
2023-05-20T11:41:59.774Z,6.63
2023-05-20T11:44:29.406Z,7.00
2023-05-20T11:47:02.368Z,5.93
2023-05-20T11:49:31.016Z,5.87
2023-05-20T11:51:59.592Z,6.28
2023-05-20T11:54:27.696Z,7.28
2023-05-20T11:56:57.208Z,8.25
2023-05-20T11:59:26.068Z,6.75
2023-05-20T12:01:55.706Z,7.80
2023-05-20T12:04:24.314Z,7.88
2023-05-20T12:06:53.600Z,7.35
2023-05-20T12:09:22.674Z,8.55
2023-05-20T12:11:51.143Z,7.05
2023-05-20T12:14:19.580Z,7.20
2023-05-20T12:16:47.918Z,6.05
2023-05-20T12:19:17.710Z,7.68
2023-05-20T12:21:47.387Z,7.63
2023-05-20T12:24:15.756Z,7.82
2023-05-20T12:26:44.326Z,6.88
2023-05-20T12:29:12.937Z,6.53
2023-05-20T12:31:41.468Z,9.23
2023-05-20T12:34:09.645Z,8.00
2023-05-20T12:36:39.607Z,6.25
2023-05-20T12:39:07.936Z,6.97
2023-05-20T12:41:36.442Z,7.45
2023-05-20T12:44:05.016Z,6.43
2023-05-20T12:46:33.383Z,7.53
2023-05-20T12:49:01.850Z,6.25
2023-05-20T12:51:30.175Z,7.18
2023-05-20T12:53:59.943Z,7.40
2023-05-20T12:56:28.273Z,7.65
2023-05-20T12:58:56.715Z,12.75
2023-05-20T13:01:25.562Z,6.65
2023-05-20T13:03:54.267Z,7.68
2023-05-20T13:06:22.521Z,7.28
2023-05-20T13:08:51.056Z,8.77
2023-05-20T13:11:21.942Z,7.00
2023-05-20T13:13:50.293Z,7.22
2023-05-20T13:16:19.013Z,8.75
2023-05-20T13:18:47.590Z,6.97
2023-05-20T13:21:15.986Z,6.45
2023-05-20T13:23:44.547Z,9.75
2023-05-20T13:26:13.027Z,7.07
2023-05-20T13:28:43.169Z,6.13
2023-05-20T13:31:11.483Z,9.13
2023-05-20T13:33:40.011Z,5.40
2023-05-20T13:36:08.913Z,6.57
2023-05-20T13:38:37.638Z,8.10
2023-05-20T13:41:06.461Z,6.38
2023-05-20T13:43:34.683Z,7.70
2023-05-20T13:46:04.761Z,6.25
2023-05-20T13:48:33.521Z,7.40
2023-05-20T13:51:02.087Z,6.63
2023-05-20T13:53:30.676Z,7.15
2023-05-20T13:55:59.541Z,6.25
2023-05-20T13:58:27.736Z,7.93
2023-05-20T14:00:55.951Z,5.20
2023-05-20T14:03:25.714Z,6.05
2023-05-20T14:05:54.750Z,8.15
2023-05-20T14:08:23.261Z,5.25
2023-05-20T14:10:54.954Z,6.10
2023-05-20T14:13:23.588Z,5.50
2023-05-20T14:15:52.951Z,5.43
2023-05-20T14:18:22.174Z,5.18
2023-05-20T14:20:52.010Z,6.07
2023-05-20T14:23:20.278Z,4.97
2023-05-20T14:25:48.793Z,4.72
2023-05-20T14:28:17.559Z,9.10
2023-05-20T14:30:45.947Z,6.80
2023-05-20T14:33:14.736Z,5.90
2023-05-20T14:35:43.472Z,4.28
2023-05-20T14:38:13.110Z,5.97
2023-05-20T14:40:41.852Z,11.50
2023-05-20T14:43:10.288Z,5.40
2023-05-20T14:45:38.565Z,5.72
2023-05-20T14:48:07.492Z,5.63
2023-05-20T14:50:36.088Z,7.25
2023-05-20T14:53:04.645Z,4.85
2023-05-20T14:55:34.339Z,5.40
2023-05-20T14:58:02.933Z,5.18
2023-05-20T15:00:32.967Z,5.65
2023-05-20T15:03:01.766Z,5.10
2023-05-20T15:05:30.261Z,4.65
2023-05-20T15:07:58.605Z,5.68
2023-05-20T15:10:27.133Z,7.15
2023-05-20T15:12:57.360Z,4.80
2023-05-20T15:15:26.290Z,6.05
2023-05-20T15:17:55.474Z,6.38
2023-05-20T15:20:24.410Z,7.40
2023-05-20T15:22:52.763Z,4.72
2023-05-20T15:25:21.411Z,6.63
2023-05-20T15:27:50.103Z,5.80
2023-05-20T15:30:20.049Z,7.22
2023-05-20T15:32:48.651Z,5.55
2023-05-20T15:35:17.537Z,4.70
2023-05-20T15:37:45.935Z,8.95
2023-05-20T15:40:14.596Z,5.75
2023-05-20T15:42:43.200Z,5.57
2023-05-20T15:45:12.455Z,4.80
2023-05-20T15:47:43.483Z,5.07
2023-05-20T15:50:12.957Z,4.93
2023-05-20T15:52:42.222Z,6.60
2023-05-20T15:55:11.698Z,5.03
2023-05-20T15:57:40.789Z,7.55
2023-05-20T16:00:10.980Z,5.65
2023-05-20T16:02:40.611Z,8.98
2023-05-20T16:05:11.070Z,5.65
2023-05-20T16:07:39.696Z,6.80
2023-05-20T16:10:09.675Z,6.65
2023-05-20T16:12:39.613Z,6.22
2023-05-20T16:15:10.061Z,5.03
2023-05-20T16:17:38.863Z,5.50
2023-05-20T16:20:10.234Z,5.97
2023-05-20T16:22:38.931Z,6.97
2023-05-20T16:25:08.035Z,7.18
2023-05-20T16:27:36.727Z,5.53
2023-05-20T16:30:08.389Z,8.30
2023-05-20T16:32:36.630Z,6.18
2023-05-20T16:35:05.214Z,5.88
2023-05-20T16:37:37.308Z,6.35
2023-05-20T16:40:07.520Z,5.97
2023-05-20T16:42:35.897Z,6.65
2023-05-20T16:45:04.743Z,5.60
2023-05-20T16:47:34.346Z,5.78
2023-05-20T16:50:02.714Z,6.38
2023-05-20T16:52:30.948Z,6.78
2023-05-20T16:55:03.644Z,7.30
2023-05-20T16:57:32.792Z,6.03
2023-05-20T17:00:01.414Z,4.68
2023-05-20T17:02:30.077Z,6.45
2023-05-20T17:04:59.688Z,5.50
2023-05-20T17:07:28.096Z,5.68
2023-05-20T17:09:56.286Z,5.32
2023-05-20T17:12:26.353Z,5.20
2023-05-20T17:14:55.928Z,6.18
2023-05-20T17:17:24.302Z,7.55
2023-05-20T17:19:52.978Z,6.55
2023-05-20T17:22:21.524Z,7.07
2023-05-20T17:24:51.257Z,6.45
2023-05-20T17:27:19.748Z,8.80
2023-05-20T17:29:50.014Z,7.35
2023-05-20T17:32:18.819Z,8.55
2023-05-20T17:34:47.181Z,12.23
2023-05-20T17:37:16.031Z,10.73
2023-05-20T17:39:44.561Z,8.50
2023-05-20T17:42:12.913Z,10.32
2023-05-20T17:44:41.541Z,7.28
2023-05-20T17:47:13.556Z,6.38
2023-05-20T17:49:41.884Z,6.28
2023-05-20T17:52:10.491Z,7.18
2023-05-20T17:54:39.283Z,6.15
2023-05-20T17:57:08.478Z,6.03
2023-05-20T17:59:39.377Z,6.80
2023-05-20T18:02:08.617Z,7.82
2023-05-20T18:04:38.962Z,6.40
2023-05-20T18:07:07.966Z,5.70
2023-05-20T18:09:36.879Z,6.32
2023-05-20T18:12:05.755Z,8.75
2023-05-20T18:14:35.666Z,7.53
2023-05-20T18:17:04.200Z,6.32
2023-05-20T18:19:34.057Z,6.72
2023-05-20T18:22:03.879Z,5.78
2023-05-20T18:24:32.253Z,8.93
2023-05-20T18:27:01.199Z,6.50
2023-05-20T18:29:29.689Z,6.10
2023-05-20T18:31:58.160Z,6.50
2023-05-20T18:34:26.870Z,5.20
2023-05-20T18:36:55.279Z,7.07
2023-05-20T18:39:25.176Z,6.25
2023-05-20T18:41:53.634Z,7.45
2023-05-20T18:44:23.544Z,8.00
2023-05-20T18:46:52.090Z,7.00
2023-05-20T18:49:20.645Z,8.02
2023-05-20T18:51:49.611Z,6.88
2023-05-20T18:54:18.125Z,7.47
2023-05-20T18:56:49.299Z,7.20
2023-05-20T18:59:18.412Z,9.93
2023-05-20T19:01:47.194Z,8.65
2023-05-20T19:04:16.372Z,7.85
2023-05-20T19:06:45.088Z,8.38
2023-05-20T19:09:13.482Z,9.38
2023-05-20T19:11:42.006Z,7.28
2023-05-20T19:14:11.982Z,7.00
2023-05-20T19:16:41.359Z,7.93
2023-05-20T19:19:10.356Z,7.15
2023-05-20T19:21:41.764Z,7.82
2023-05-20T19:24:10.629Z,7.50
2023-05-20T19:26:39.417Z,6.72
2023-05-20T19:29:08.367Z,6.93
2023-05-20T19:31:43.137Z,5.93
2023-05-20T19:34:12.535Z,8.77
2023-05-20T19:36:43.025Z,6.97
2023-05-20T19:39:12.226Z,8.57
2023-05-20T19:41:41.815Z,11.05
2023-05-20T19:44:11.009Z,8.15
2023-05-20T19:46:41.284Z,7.40
2023-05-20T19:49:09.893Z,10.82
2023-05-20T19:51:38.965Z,8.32
2023-05-20T19:54:07.494Z,10.82
2023-05-20T19:56:36.014Z,19.77
2023-05-20T19:59:05.058Z,13.23
2023-05-20T20:01:34.034Z,16.20
2023-05-20T20:04:03.708Z,13.32
2023-05-20T20:06:32.813Z,9.57
2023-05-20T20:09:01.614Z,16.27
2023-05-20T20:11:30.593Z,10.48
2023-05-20T20:13:59.702Z,9.35
2023-05-20T20:16:29.545Z,8.32
2023-05-20T20:18:58.540Z,6.53
2023-05-20T20:21:29.061Z,9.27
2023-05-20T20:23:57.523Z,6.25
2023-05-20T20:26:26.977Z,7.38
2023-05-20T20:28:55.537Z,9.10
2023-05-20T20:31:25.441Z,8.35
2023-05-20T20:33:54.229Z,10.55
2023-05-20T20:36:23.040Z,8.00
2023-05-20T20:38:53.852Z,12.32
2023-05-20T20:41:22.558Z,8.07
2023-05-20T20:43:51.940Z,9.02
2023-05-20T20:46:20.678Z,10.57
2023-05-20T20:48:50.431Z,7.40
2023-05-20T20:51:18.737Z,7.63
2023-05-20T20:53:48.978Z,20.70
2023-05-20T20:56:19.030Z,8.32
2023-05-20T20:58:47.620Z,8.90
2023-05-20T21:01:17.834Z,10.15
2023-05-20T21:03:46.573Z,7.85
2023-05-20T21:06:15.410Z,9.68
2023-05-20T21:08:44.237Z,12.50
2023-05-20T21:11:13.686Z,6.55
2023-05-20T21:13:44.437Z,10.85
2023-05-20T21:16:13.168Z,8.20
2023-05-20T21:18:42.231Z,8.95
2023-05-20T21:21:14.078Z,10.82
2023-05-20T21:23:43.409Z,8.48
2023-05-20T21:26:11.918Z,9.07
2023-05-20T21:28:40.685Z,8.10
2023-05-20T21:31:10.926Z,9.90
2023-05-20T21:33:39.827Z,10.85
2023-05-20T21:36:08.704Z,10.35
2023-05-20T21:38:37.204Z,7.97
2023-05-20T21:41:06.120Z,7.43
2023-05-20T21:43:36.188Z,9.63
2023-05-20T21:46:06.755Z,12.38
2023-05-20T21:48:37.062Z,7.57
2023-05-20T21:51:06.036Z,9.50
2023-05-20T21:53:35.455Z,11.80
2023-05-20T21:56:03.965Z,16.20
2023-05-20T21:58:32.741Z,10.82
2023-05-20T22:01:02.475Z,7.78
2023-05-20T22:03:36.452Z,10.30
2023-05-20T22:06:07.485Z,11.60
2023-05-20T22:08:35.994Z,10.35
2023-05-20T22:11:07.657Z,10.25
2023-05-20T22:13:41.891Z,9.52
2023-05-20T22:16:11.958Z,10.90
2023-05-20T22:18:43.459Z,9.35
2023-05-20T22:21:14.094Z,10.00
2023-05-20T22:23:43.807Z,10.52
2023-05-20T22:26:13.087Z,10.43
2023-05-20T22:28:42.290Z,9.00
2023-05-20T22:31:10.811Z,13.70
2023-05-20T22:33:42.962Z,11.10
2023-05-20T22:36:13.236Z,10.77
2023-05-20T22:38:41.959Z,11.48
2023-05-20T22:41:11.190Z,8.95
2023-05-20T22:43:39.578Z,13.07
2023-05-20T22:46:08.338Z,10.85
2023-05-20T22:48:37.499Z,14.43
2023-05-20T22:51:06.746Z,11.13
2023-05-20T22:53:37.097Z,12.93
2023-05-20T22:56:06.097Z,7.68
2023-05-20T22:58:39.785Z,15.65
2023-05-20T23:01:10.566Z,14.10
2023-05-20T23:03:40.408Z,10.35
2023-05-20T23:06:08.919Z,11.90
2023-05-20T23:08:39.161Z,27.63
2023-05-20T23:11:08.823Z,10.98
2023-05-20T23:13:37.652Z,15.05
2023-05-20T23:16:07.878Z,16.95
2023-05-20T23:18:36.612Z,88.65
2023-05-20T23:21:05.398Z,41.65
2023-05-20T23:23:33.711Z,40.63
2023-05-20T23:26:05.434Z,54.05
2023-05-20T23:28:33.964Z,120.72
2023-05-20T23:31:02.474Z,173.20
2023-05-20T23:33:31.023Z,245.65
2023-05-20T23:36:00.696Z,61.22
2023-05-20T23:38:30.715Z,69.85
2023-05-20T23:40:59.187Z,47.78
2023-05-20T23:43:29.058Z,68.35
2023-05-20T23:45:57.519Z,77.05
2023-05-20T23:48:26.708Z,253.48
2023-05-20T23:50:56.619Z,22.70
2023-05-20T23:53:25.811Z,85.93
2023-05-20T23:55:55.430Z,142.95
2023-05-20T23:58:24.032Z,159.35
